Happy Valley, Oregon
Current Conditions -  °F | °C
As of 9:53 PM on Saturday 25 Oct 2014 (Local Time) from KTTD Reporting Station
Broken Clouds Broken Clouds  
Wind Chill: 55°   Ceiling: 12000
Heat Index: 55°   Visibility: 10mi
Dew Point: 48°   Wind: 10mph
Humidity: 77%   Direction: 210°SSW
Pressure: 29.84"   Gusts: NA
Location:  45.45°N, 122.53°W
Report Text: KTTD 260453Z AUTO 21009KT 10SM SCT060 BKN120 13/09 A2984 RMK AO2 RAE19 SLP105 P0000 T01280089
Loading
Personal Weather Stations






























Interactive Weather Map
Tropical Storm Tracking
New forecast layout! Learn more

10-Day Weather Forecast

Advertisements
Track Severe Weather on mobile